sensor_id;sensor_type;location;lat;lon;timestamp;pressure;altitude;pressure_sealevel;temperature;humidity
38616;BME280;24370;51.986;4.666;2022-10-23T00:03:53;101396.91;;;23.33;44.88
38616;BME280;24370;51.986;4.666;2022-10-23T00:06:19;101396.06;;;23.48;44.28
38616;BME280;24370;51.986;4.666;2022-10-23T00:08:46;101408.44;;;23.49;44.30
38616;BME280;24370;51.986;4.666;2022-10-23T00:11:14;101399.50;;;23.82;43.74
38616;BME280;24370;51.986;4.666;2022-10-23T00:13:40;101398.78;;;23.63;44.44
38616;BME280;24370;51.986;4.666;2022-10-23T00:16:06;101405.72;;;23.17;45.28
38616;BME280;24370;51.986;4.666;2022-10-23T00:18:31;101406.78;;;22.97;45.41
38616;BME280;24370;51.986;4.666;2022-10-23T00:20:57;101403.63;;;22.38;47.16
38616;BME280;24370;51.986;4.666;2022-10-23T00:23:23;101403.50;;;21.85;48.77
38616;BME280;24370;51.986;4.666;2022-10-23T00:25:48;101405.59;;;21.79;49.44
38616;BME280;24370;51.986;4.666;2022-10-23T00:28:14;101401.88;;;22.37;48.23
38616;BME280;24370;51.986;4.666;2022-10-23T00:30:39;101385.94;;;23.21;45.55
38616;BME280;24370;51.986;4.666;2022-10-23T00:33:05;101390.19;;;23.42;44.87
38616;BME280;24370;51.986;4.666;2022-10-23T00:35:30;101394.22;;;23.81;44.06
38616;BME280;24370;51.986;4.666;2022-10-23T00:37:56;101387.78;;;23.37;44.77
38616;BME280;24370;51.986;4.666;2022-10-23T00:40:21;101395.34;;;22.78;46.60
38616;BME280;24370;51.986;4.666;2022-10-23T00:42:46;101392.38;;;23.17;45.63
38616;BME280;24370;51.986;4.666;2022-10-23T00:45:24;101405.09;;;22.07;48.46
38616;BME280;24370;51.986;4.666;2022-10-23T00:47:51;101395.78;;;22.70;47.38
38616;BME280;24370;51.986;4.666;2022-10-23T00:50:18;101389.16;;;22.77;47.14
38616;BME280;24370;51.986;4.666;2022-10-23T00:52:48;101391.56;;;23.33;45.56
38616;BME280;24370;51.986;4.666;2022-10-23T00:55:15;101392.25;;;23.20;45.80
38616;BME280;24370;51.986;4.666;2022-10-23T00:57:43;101384.56;;;22.97;46.19
38616;BME280;24370;51.986;4.666;2022-10-23T01:00:22;101386.94;;;23.03;45.86
38616;BME280;24370;51.986;4.666;2022-10-23T01:02:48;101383.19;;;22.90;46.72
38616;BME280;24370;51.986;4.666;2022-10-23T01:05:14;101383.22;;;23.39;45.48
38616;BME280;24370;51.986;4.666;2022-10-23T01:07:49;101388.41;;;22.58;47.43
38616;BME280;24370;51.986;4.666;2022-10-23T01:10:36;101380.72;;;22.69;47.31
38616;BME280;24370;51.986;4.666;2022-10-23T01:13:20;101371.69;;;23.05;46.38
38616;BME280;24370;51.986;4.666;2022-10-23T01:16:10;101380.44;;;22.40;48.19
38616;BME280;24370;51.986;4.666;2022-10-23T01:18:43;101379.63;;;22.56;46.61
38616;BME280;24370;51.986;4.666;2022-10-23T01:21:21;101376.22;;;22.69;47.24
38616;BME280;24370;51.986;4.666;2022-10-23T01:30:01;101373.53;;;22.87;46.76
38616;BME280;24370;51.986;4.666;2022-10-23T01:32:43;101362.13;;;22.34;47.88
38616;BME280;24370;51.986;4.666;2022-10-23T01:35:15;101359.31;;;22.70;47.21
38616;BME280;24370;51.986;4.666;2022-10-23T01:37:48;101361.22;;;23.02;46.39
38616;BME280;24370;51.986;4.666;2022-10-23T01:40:48;101359.28;;;22.88;46.86
38616;BME280;24370;51.986;4.666;2022-10-23T01:43:23;101353.81;;;23.07;45.83
38616;BME280;24370;51.986;4.666;2022-10-23T01:45:52;101350.19;;;22.41;48.03
38616;BME280;24370;51.986;4.666;2022-10-23T01:48:23;101347.72;;;22.72;47.36
38616;BME280;24370;51.986;4.666;2022-10-23T01:50:52;101339.22;;;22.47;47.26
38616;BME280;24370;51.986;4.666;2022-10-23T01:53:20;101323.34;;;22.79;46.49
38616;BME280;24370;51.986;4.666;2022-10-23T01:55:48;101334.69;;;23.48;45.40
38616;BME280;24370;51.986;4.666;2022-10-23T01:58:15;101327.59;;;22.31;47.59
38616;BME280;24370;51.986;4.666;2022-10-23T02:00:44;101330.25;;;22.99;45.82
38616;BME280;24370;51.986;4.666;2022-10-23T02:03:10;101328.06;;;22.74;46.09
38616;BME280;24370;51.986;4.666;2022-10-23T02:05:37;101323.28;;;22.97;46.03
38616;BME280;24370;51.986;4.666;2022-10-23T02:08:04;101320.50;;;23.32;45.24
38616;BME280;24370;51.986;4.666;2022-10-23T02:10:43;101324.75;;;21.81;48.83
38616;BME280;24370;51.986;4.666;2022-10-23T02:13:19;101314.06;;;22.86;46.52
38616;BME280;24370;51.986;4.666;2022-10-23T02:15:56;101320.06;;;22.90;46.14
38616;BME280;24370;51.986;4.666;2022-10-23T02:18:40;101308.13;;;22.81;46.23
38616;BME280;24370;51.986;4.666;2022-10-23T02:21:09;101331.34;;;23.13;45.32
38616;BME280;24370;51.986;4.666;2022-10-23T02:23:41;101326.84;;;22.46;46.60
38616;BME280;24370;51.986;4.666;2022-10-23T02:26:26;101324.53;;;21.30;49.75
38616;BME280;24370;51.986;4.666;2022-10-23T02:29:02;101320.69;;;22.79;46.18
38616;BME280;24370;51.986;4.666;2022-10-23T02:31:28;101319.22;;;22.90;46.06
38616;BME280;24370;51.986;4.666;2022-10-23T02:33:54;101323.41;;;22.09;48.08
38616;BME280;24370;51.986;4.666;2022-10-23T02:36:19;101320.03;;;21.69;49.44
38616;BME280;24370;51.986;4.666;2022-10-23T02:38:45;101312.47;;;22.66;46.16
38616;BME280;24370;51.986;4.666;2022-10-23T02:41:34;101307.47;;;22.60;46.76
38616;BME280;24370;51.986;4.666;2022-10-23T02:57:49;101272.75;;;22.62;46.65
38616;BME280;24370;51.986;4.666;2022-10-23T03:00:19;101266.50;;;22.63;45.89
38616;BME280;24370;51.986;4.666;2022-10-23T03:03:52;101258.59;;;21.93;48.14
38616;BME280;24370;51.986;4.666;2022-10-23T03:05:45;101244.13;;;22.32;47.88
38616;BME280;24370;51.986;4.666;2022-10-23T03:08:12;101248.81;;;22.94;45.91
38616;BME280;24370;51.986;4.666;2022-10-23T03:10:39;101246.16;;;23.26;44.90
38616;BME280;24370;51.986;4.666;2022-10-23T03:13:05;101246.34;;;22.91;46.44
38616;BME280;24370;51.986;4.666;2022-10-23T03:15:31;101257.03;;;23.23;45.22
38616;BME280;24370;51.986;4.666;2022-10-23T03:17:56;101251.72;;;22.73;46.12
38616;BME280;24370;51.986;4.666;2022-10-23T03:20:21;101252.34;;;22.78;46.34
38616;BME280;24370;51.986;4.666;2022-10-23T03:22:47;101240.22;;;22.39;47.29
38616;BME280;24370;51.986;4.666;2022-10-23T03:25:12;101234.00;;;22.72;46.09
38616;BME280;24370;51.986;4.666;2022-10-23T03:27:38;101238.06;;;23.11;44.96
38616;BME280;24370;51.986;4.666;2022-10-23T03:30:04;101228.09;;;22.99;45.73
38616;BME280;24370;51.986;4.666;2022-10-23T03:32:30;101231.88;;;22.95;45.56
38616;BME280;24370;51.986;4.666;2022-10-23T03:34:55;101228.59;;;22.58;46.40
38616;BME280;24370;51.986;4.666;2022-10-23T03:37:21;101225.19;;;22.87;45.47
38616;BME280;24370;51.986;4.666;2022-10-23T03:39:47;101219.69;;;22.91;45.89
38616;BME280;24370;51.986;4.666;2022-10-23T03:42:12;101220.72;;;23.04;45.48
38616;BME280;24370;51.986;4.666;2022-10-23T03:44:38;101211.75;;;22.73;45.59
38616;BME280;24370;51.986;4.666;2022-10-23T03:47:03;101199.56;;;22.69;45.61
38616;BME280;24370;51.986;4.666;2022-10-23T03:49:29;101194.41;;;22.98;45.38
38616;BME280;24370;51.986;4.666;2022-10-23T03:51:54;101196.38;;;22.78;45.56
38616;BME280;24370;51.986;4.666;2022-10-23T03:54:25;101197.75;;;23.17;44.83
38616;BME280;24370;51.986;4.666;2022-10-23T03:56:51;101191.03;;;22.94;45.21
38616;BME280;24370;51.986;4.666;2022-10-23T03:59:17;101198.50;;;22.56;46.24
38616;BME280;24370;51.986;4.666;2022-10-23T04:01:43;101193.88;;;23.07;45.74
38616;BME280;24370;51.986;4.666;2022-10-23T04:04:08;101192.28;;;22.39;46.78
38616;BME280;24370;51.986;4.666;2022-10-23T04:06:34;101192.81;;;22.46;47.01
38616;BME280;24370;51.986;4.666;2022-10-23T04:08:59;101188.09;;;23.31;45.19
38616;BME280;24370;51.986;4.666;2022-10-23T04:11:25;101190.09;;;23.11;45.04
38616;BME280;24370;51.986;4.666;2022-10-23T04:13:50;101187.88;;;22.72;45.65
38616;BME280;24370;51.986;4.666;2022-10-23T04:16:15;101178.03;;;23.36;44.29
38616;BME280;24370;51.986;4.666;2022-10-23T04:18:41;101175.81;;;22.80;45.43
38616;BME280;24370;51.986;4.666;2022-10-23T04:21:07;101157.75;;;23.17;45.12
38616;BME280;24370;51.986;4.666;2022-10-23T04:23:33;101167.97;;;23.09;44.61
38616;BME280;24370;51.986;4.666;2022-10-23T04:25:58;101162.59;;;22.63;46.88
38616;BME280;24370;51.986;4.666;2022-10-23T04:28:24;101155.53;;;22.46;46.52
38616;BME280;24370;51.986;4.666;2022-10-23T04:30:49;101150.84;;;22.67;46.36
38616;BME280;24370;51.986;4.666;2022-10-23T04:33:15;101149.19;;;22.48;46.51
38616;BME280;24370;51.986;4.666;2022-10-23T04:35:40;101151.75;;;22.98;45.66
38616;BME280;24370;51.986;4.666;2022-10-23T04:38:06;101145.56;;;23.13;45.48
38616;BME280;24370;51.986;4.666;2022-10-23T04:40:31;101142.84;;;22.67;45.85
38616;BME280;24370;51.986;4.666;2022-10-23T04:42:57;101132.91;;;23.01;45.01
38616;BME280;24370;51.986;4.666;2022-10-23T04:45:22;101139.38;;;22.97;45.69
38616;BME280;24370;51.986;4.666;2022-10-23T04:47:48;101140.50;;;23.39;44.51
38616;BME280;24370;51.986;4.666;2022-10-23T04:50:14;101150.13;;;22.95;45.43
38616;BME280;24370;51.986;4.666;2022-10-23T04:52:39;101149.00;;;23.15;45.25
38616;BME280;24370;51.986;4.666;2022-10-23T04:55:06;101150.25;;;23.40;44.52
38616;BME280;24370;51.986;4.666;2022-10-23T04:57:32;101154.19;;;22.86;45.64
38616;BME280;24370;51.986;4.666;2022-10-23T04:59:57;101144.13;;;23.38;44.99
38616;BME280;24370;51.986;4.666;2022-10-23T05:02:23;101138.44;;;22.98;45.70
38616;BME280;24370;51.986;4.666;2022-10-23T05:04:49;101140.31;;;23.42;44.51
38616;BME280;24370;51.986;4.666;2022-10-23T05:07:14;101134.09;;;23.11;45.74
38616;BME280;24370;51.986;4.666;2022-10-23T05:09:40;101135.72;;;23.30;45.15
38616;BME280;24370;51.986;4.666;2022-10-23T05:12:05;101129.13;;;23.51;44.10
38616;BME280;24370;51.986;4.666;2022-10-23T05:14:30;101118.56;;;23.03;45.68
38616;BME280;24370;51.986;4.666;2022-10-23T05:16:59;101114.25;;;23.17;45.25
38616;BME280;24370;51.986;4.666;2022-10-23T05:19:31;101134.59;;;22.87;46.06
38616;BME280;24370;51.986;4.666;2022-10-23T05:21:58;101136.47;;;22.85;46.60
38616;BME280;24370;51.986;4.666;2022-10-23T05:24:24;101134.75;;;22.68;46.07
38616;BME280;24370;51.986;4.666;2022-10-23T05:26:50;101129.53;;;23.29;45.05
38616;BME280;24370;51.986;4.666;2022-10-23T05:29:20;101133.63;;;22.57;46.59
38616;BME280;24370;51.986;4.666;2022-10-23T05:31:48;101134.19;;;22.30;47.57
38616;BME280;24370;51.986;4.666;2022-10-23T05:34:16;101133.19;;;22.80;46.95
38616;BME280;24370;51.986;4.666;2022-10-23T05:36:42;101131.97;;;23.02;46.24
38616;BME280;24370;51.986;4.666;2022-10-23T05:39:08;101131.75;;;23.37;45.38
38616;BME280;24370;51.986;4.666;2022-10-23T05:41:34;101128.91;;;23.54;45.06
38616;BME280;24370;51.986;4.666;2022-10-23T05:43:59;101127.38;;;23.36;45.01
38616;BME280;24370;51.986;4.666;2022-10-23T05:46:24;101123.09;;;23.48;45.03
38616;BME280;24370;51.986;4.666;2022-10-23T05:48:52;101124.88;;;22.70;46.67
38616;BME280;24370;51.986;4.666;2022-10-23T05:51:19;101122.66;;;23.09;46.41
38616;BME280;24370;51.986;4.666;2022-10-23T05:53:50;101126.63;;;23.02;46.57
38616;BME280;24370;51.986;4.666;2022-10-23T05:56:16;101115.22;;;23.00;46.13
38616;BME280;24370;51.986;4.666;2022-10-23T05:58:42;101107.59;;;21.96;48.81
38616;BME280;24370;51.986;4.666;2022-10-23T06:01:09;101103.97;;;22.95;46.86
38616;BME280;24370;51.986;4.666;2022-10-23T06:03:36;101102.75;;;22.84;46.77
38616;BME280;24370;51.986;4.666;2022-10-23T06:06:02;101096.50;;;23.46;45.26
38616;BME280;24370;51.986;4.666;2022-10-23T06:08:28;101107.38;;;23.13;46.16
38616;BME280;24370;51.986;4.666;2022-10-23T06:10:54;101109.06;;;23.30;45.50
38616;BME280;24370;51.986;4.666;2022-10-23T06:13:20;101103.81;;;22.66;46.74
38616;BME280;24370;51.986;4.666;2022-10-23T06:15:45;101097.09;;;22.91;46.17
38616;BME280;24370;51.986;4.666;2022-10-23T06:18:10;101092.66;;;22.75;46.98
38616;BME280;24370;51.986;4.666;2022-10-23T06:20:37;101089.47;;;22.52;47.56
38616;BME280;24370;51.986;4.666;2022-10-23T06:23:04;101081.91;;;23.07;46.62
38616;BME280;24370;51.986;4.666;2022-10-23T06:25:30;101076.38;;;22.96;46.65
38616;BME280;24370;51.986;4.666;2022-10-23T06:30:20;101076.72;;;22.90;46.36
38616;BME280;24370;51.986;4.666;2022-10-23T06:32:46;101072.50;;;22.85;47.38
38616;BME280;24370;51.986;4.666;2022-10-23T06:35:11;101065.22;;;22.73;47.31
38616;BME280;24370;51.986;4.666;2022-10-23T06:37:37;101056.50;;;23.32;45.46
38616;BME280;24370;51.986;4.666;2022-10-23T06:40:03;101055.09;;;22.32;47.43
38616;BME280;24370;51.986;4.666;2022-10-23T06:42:28;101043.50;;;22.65;46.91
38616;BME280;24370;51.986;4.666;2022-10-23T06:44:54;101040.19;;;22.92;46.59
38616;BME280;24370;51.986;4.666;2022-10-23T06:47:20;101045.09;;;22.83;46.54
38616;BME280;24370;51.986;4.666;2022-10-23T06:49:45;101051.38;;;22.66;47.52
38616;BME280;24370;51.986;4.666;2022-10-23T06:52:11;101050.28;;;23.17;45.90
38616;BME280;24370;51.986;4.666;2022-10-23T06:54:36;101039.56;;;23.47;45.28
38616;BME280;24370;51.986;4.666;2022-10-23T06:57:02;101050.28;;;23.17;45.89
38616;BME280;24370;51.986;4.666;2022-10-23T06:59:27;101055.72;;;23.30;45.40
38616;BME280;24370;51.986;4.666;2022-10-23T07:01:52;101053.50;;;21.96;49.52
38616;BME280;24370;51.986;4.666;2022-10-23T07:04:18;101045.34;;;23.25;46.64
38616;BME280;24370;51.986;4.666;2022-10-23T07:06:43;101042.19;;;23.18;46.52
38616;BME280;24370;51.986;4.666;2022-10-23T07:09:09;101033.13;;;22.91;47.02
38616;BME280;24370;51.986;4.666;2022-10-23T07:11:35;101022.41;;;23.37;45.87
38616;BME280;24370;51.986;4.666;2022-10-23T07:14:01;101023.75;;;23.59;45.81
38616;BME280;24370;51.986;4.666;2022-10-23T07:16:26;101014.59;;;23.63;45.47
38616;BME280;24370;51.986;4.666;2022-10-23T07:18:57;101025.84;;;23.82;44.98
38616;BME280;24370;51.986;4.666;2022-10-23T07:21:31;101032.22;;;23.06;47.32
38616;BME280;24370;51.986;4.666;2022-10-23T07:23:57;101046.56;;;22.89;47.98
38616;BME280;24370;51.986;4.666;2022-10-23T07:26:23;101046.78;;;23.31;46.51
38616;BME280;24370;51.986;4.666;2022-10-23T07:28:48;101028.69;;;23.50;46.63
38616;BME280;24370;51.986;4.666;2022-10-23T07:31:20;101033.09;;;23.37;46.86
38616;BME280;24370;51.986;4.666;2022-10-23T07:33:45;101028.31;;;22.97;47.89
38616;BME280;24370;51.986;4.666;2022-10-23T07:36:11;101025.84;;;23.25;47.22
38616;BME280;24370;51.986;4.666;2022-10-23T07:38:36;101023.56;;;23.33;46.89
38616;BME280;24370;51.986;4.666;2022-10-23T07:41:02;101019.94;;;23.77;45.91
38616;BME280;24370;51.986;4.666;2022-10-23T07:43:30;101020.53;;;23.82;45.65
38616;BME280;24370;51.986;4.666;2022-10-23T07:45:56;101019.16;;;24.04;45.74
38616;BME280;24370;51.986;4.666;2022-10-23T07:48:21;101022.97;;;23.71;45.52
38616;BME280;24370;51.986;4.666;2022-10-23T07:50:48;101022.81;;;23.74;46.33
38616;BME280;24370;51.986;4.666;2022-10-23T07:53:17;101012.78;;;23.49;46.76
38616;BME280;24370;51.986;4.666;2022-10-23T07:55:50;101012.13;;;23.74;46.44
38616;BME280;24370;51.986;4.666;2022-10-23T07:58:16;101004.31;;;23.57;46.07
38616;BME280;24370;51.986;4.666;2022-10-23T08:00:41;101007.72;;;23.87;45.99
38616;BME280;24370;51.986;4.666;2022-10-23T08:03:07;101003.34;;;23.43;47.19
38616;BME280;24370;51.986;4.666;2022-10-23T08:05:32;101003.75;;;23.37;47.28
38616;BME280;24370;51.986;4.666;2022-10-23T08:07:57;101006.97;;;23.71;46.53
38616;BME280;24370;51.986;4.666;2022-10-23T08:10:29;101008.91;;;23.69;46.80
38616;BME280;24370;51.986;4.666;2022-10-23T08:12:55;101012.75;;;23.20;47.26
38616;BME280;24370;51.986;4.666;2022-10-23T08:15:20;100999.94;;;23.99;46.22
38616;BME280;24370;51.986;4.666;2022-10-23T08:17:46;100996.88;;;24.60;44.29
38616;BME280;24370;51.986;4.666;2022-10-23T08:20:11;100988.97;;;24.31;45.16
38616;BME280;24370;51.986;4.666;2022-10-23T08:22:38;100989.47;;;24.23;45.54
38616;BME280;24370;51.986;4.666;2022-10-23T08:25:04;100989.44;;;23.96;46.37
38616;BME280;24370;51.986;4.666;2022-10-23T08:27:29;100969.94;;;24.22;45.71
38616;BME280;24370;51.986;4.666;2022-10-23T08:29:54;100971.44;;;24.27;45.40
38616;BME280;24370;51.986;4.666;2022-10-23T08:32:20;100966.47;;;24.62;44.53
38616;BME280;24370;51.986;4.666;2022-10-23T08:34:45;100971.44;;;24.27;45.63
38616;BME280;24370;51.986;4.666;2022-10-23T08:37:11;100967.25;;;24.22;45.20
38616;BME280;24370;51.986;4.666;2022-10-23T08:39:36;100969.44;;;23.88;46.57
38616;BME280;24370;51.986;4.666;2022-10-23T08:42:01;100968.91;;;24.38;45.64
38616;BME280;24370;51.986;4.666;2022-10-23T08:47:03;100961.47;;;24.56;45.00
38616;BME280;24370;51.986;4.666;2022-10-23T08:49:46;100963.53;;;23.69;47.30
38616;BME280;24370;51.986;4.666;2022-10-23T08:57:41;100943.31;;;24.48;45.23
38616;BME280;24370;51.986;4.666;2022-10-23T09:00:14;100949.16;;;24.13;46.27
38616;BME280;24370;51.986;4.666;2022-10-23T09:02:49;100938.84;;;24.21;46.74
38616;BME280;24370;51.986;4.666;2022-10-23T09:05:18;100938.03;;;24.34;46.17
38616;BME280;24370;51.986;4.666;2022-10-23T09:07:52;100928.84;;;24.65;45.73
38616;BME280;24370;51.986;4.666;2022-10-23T09:10:53;100931.97;;;24.45;45.56
38616;BME280;24370;51.986;4.666;2022-10-23T09:16:34;100922.31;;;24.02;46.75
38616;BME280;24370;51.986;4.666;2022-10-23T09:19:00;100917.94;;;24.41;46.58
38616;BME280;24370;51.986;4.666;2022-10-23T09:21:27;100924.97;;;24.56;46.05
38616;BME280;24370;51.986;4.666;2022-10-23T09:23:53;100929.72;;;25.04;45.06
38616;BME280;24370;51.986;4.666;2022-10-23T09:26:18;100916.09;;;24.29;46.56
38616;BME280;24370;51.986;4.666;2022-10-23T09:28:48;100919.63;;;24.56;46.00
38616;BME280;24370;51.986;4.666;2022-10-23T09:31:15;100911.50;;;23.91;47.55
38616;BME280;24370;51.986;4.666;2022-10-23T09:33:41;100915.31;;;23.72;48.88
38616;BME280;24370;51.986;4.666;2022-10-23T09:36:19;100911.47;;;22.75;50.50
38616;BME280;24370;51.986;4.666;2022-10-23T09:41:33;100897.66;;;23.84;48.12
38616;BME280;24370;51.986;4.666;2022-10-23T09:46:43;100884.69;;;24.19;47.59
38616;BME280;24370;51.986;4.666;2022-10-23T09:49:23;100883.75;;;24.73;46.81
38616;BME280;24370;51.986;4.666;2022-10-23T09:52:05;100900.16;;;24.54;47.08
38616;BME280;24370;51.986;4.666;2022-10-23T09:54:52;100898.81;;;24.87;45.91
38616;BME280;24370;51.986;4.666;2022-10-23T10:02:39;100882.38;;;24.28;46.98
38616;BME280;24370;51.986;4.666;2022-10-23T10:05:28;100894.81;;;24.54;47.07
38616;BME280;24370;51.986;4.666;2022-10-23T10:08:22;100884.34;;;24.11;47.49
38616;BME280;24370;51.986;4.666;2022-10-23T10:19:09;100857.50;;;25.30;45.49
38616;BME280;24370;51.986;4.666;2022-10-23T10:24:17;100840.78;;;25.77;44.34
38616;BME280;24370;51.986;4.666;2022-10-23T10:27:13;100850.22;;;25.19;45.81
38616;BME280;24370;51.986;4.666;2022-10-23T10:37:45;100815.94;;;25.99;43.72
38616;BME280;24370;51.986;4.666;2022-10-23T10:46:06;100784.88;;;25.61;44.86
38616;BME280;24370;51.986;4.666;2022-10-23T10:48:48;100770.53;;;26.21;43.65
38616;BME280;24370;51.986;4.666;2022-10-23T10:54:40;100769.75;;;26.08;44.00
38616;BME280;24370;51.986;4.666;2022-10-23T10:57:35;100761.19;;;26.38;43.59
38616;BME280;24370;51.986;4.666;2022-10-23T11:00:12;100760.91;;;26.30;43.53
38616;BME280;24370;51.986;4.666;2022-10-23T11:02:43;100756.16;;;26.22;44.07
38616;BME280;24370;51.986;4.666;2022-10-23T11:05:38;100752.63;;;25.01;46.13
38616;BME280;24370;51.986;4.666;2022-10-23T11:08:20;100749.25;;;25.23;45.16
38616;BME280;24370;51.986;4.666;2022-10-23T11:10:54;100741.28;;;26.07;44.51
38616;BME280;24370;51.986;4.666;2022-10-23T11:13:36;100731.81;;;26.37;44.02
38616;BME280;24370;51.986;4.666;2022-10-23T11:16:15;100721.63;;;25.60;45.07
38616;BME280;24370;51.986;4.666;2022-10-23T11:21:33;100712.19;;;26.25;44.34
38616;BME280;24370;51.986;4.666;2022-10-23T11:24:22;100710.28;;;25.91;45.93
38616;BME280;24370;51.986;4.666;2022-10-23T11:27:25;100696.94;;;27.16;42.74
38616;BME280;24370;51.986;4.666;2022-10-23T11:36:40;100690.38;;;25.60;45.30
38616;BME280;24370;51.986;4.666;2022-10-23T11:38:41;100684.31;;;26.16;44.14
38616;BME280;24370;51.986;4.666;2022-10-23T11:43:58;100674.44;;;26.28;44.71
38616;BME280;24370;51.986;4.666;2022-10-23T11:46:34;100675.16;;;26.07;44.35
38616;BME280;24370;51.986;4.666;2022-10-23T11:49:00;100680.28;;;25.15;46.23
38616;BME280;24370;51.986;4.666;2022-10-23T12:02:09;100657.66;;;27.15;42.83
38616;BME280;24370;51.986;4.666;2022-10-23T12:04:49;100649.38;;;26.52;43.78
38616;BME280;24370;51.986;4.666;2022-10-23T12:07:20;100644.16;;;26.50;44.22
38616;BME280;24370;51.986;4.666;2022-10-23T12:10:25;100641.81;;;26.80;43.86
38616;BME280;24370;51.986;4.666;2022-10-23T12:12:58;100628.88;;;26.85;43.62
38616;BME280;24370;51.986;4.666;2022-10-23T12:15:25;100628.94;;;26.39;44.63
38616;BME280;24370;51.986;4.666;2022-10-23T12:17:52;100628.44;;;27.33;42.50
38616;BME280;24370;51.986;4.666;2022-10-23T12:20:28;100628.09;;;27.38;41.94
38616;BME280;24370;51.986;4.666;2022-10-23T12:23:11;100633.16;;;27.52;42.64
38616;BME280;24370;51.986;4.666;2022-10-23T12:25:55;100634.47;;;27.37;42.65
38616;BME280;24370;51.986;4.666;2022-10-23T12:28:33;100634.63;;;26.35;44.07
38616;BME280;24370;51.986;4.666;2022-10-23T12:31:22;100624.66;;;26.14;44.25
38616;BME280;24370;51.986;4.666;2022-10-23T12:39:28;100616.34;;;27.06;42.84
38616;BME280;24370;51.986;4.666;2022-10-23T12:41:54;100617.56;;;27.46;42.25
38616;BME280;24370;51.986;4.666;2022-10-23T12:44:21;100613.31;;;27.11;43.03
38616;BME280;24370;51.986;4.666;2022-10-23T12:46:50;100606.09;;;28.48;40.50
38616;BME280;24370;51.986;4.666;2022-10-23T12:49:21;100594.22;;;28.10;41.10
38616;BME280;24370;51.986;4.666;2022-10-23T12:51:57;100598.03;;;27.86;41.21
38616;BME280;24370;51.986;4.666;2022-10-23T12:54:23;100571.56;;;27.82;41.44
38616;BME280;24370;51.986;4.666;2022-10-23T12:56:49;100571.19;;;27.86;41.62
38616;BME280;24370;51.986;4.666;2022-10-23T13:01:47;100565.00;;;26.46;43.72
38616;BME280;24370;51.986;4.666;2022-10-23T13:04:20;100555.25;;;26.22;45.31
38616;BME280;24370;51.986;4.666;2022-10-23T13:06:48;100550.94;;;27.51;42.25
38616;BME280;24370;51.986;4.666;2022-10-23T13:11:53;100525.50;;;28.17;41.23
38616;BME280;24370;51.986;4.666;2022-10-23T13:14:41;100539.25;;;26.99;42.71
38616;BME280;24370;51.986;4.666;2022-10-23T13:17:10;100527.38;;;27.96;40.64
38616;BME280;24370;51.986;4.666;2022-10-23T13:19:36;100513.84;;;26.82;43.64
38616;BME280;24370;51.986;4.666;2022-10-23T13:22:04;100517.22;;;27.99;40.82
38616;BME280;24370;51.986;4.666;2022-10-23T13:24:39;100512.34;;;27.83;41.17
38616;BME280;24370;51.986;4.666;2022-10-23T13:29:54;100500.06;;;26.86;43.19
38616;BME280;24370;51.986;4.666;2022-10-23T13:32:25;100482.72;;;27.33;42.80
38616;BME280;24370;51.986;4.666;2022-10-23T13:34:54;100494.44;;;27.11;43.03
38616;BME280;24370;51.986;4.666;2022-10-23T13:37:25;100497.59;;;27.68;42.04
38616;BME280;24370;51.986;4.666;2022-10-23T13:40:05;100487.06;;;27.45;42.45
38616;BME280;24370;51.986;4.666;2022-10-23T13:42:34;100480.41;;;27.80;41.82
38616;BME280;24370;51.986;4.666;2022-10-23T13:45:00;100485.88;;;27.38;42.00
38616;BME280;24370;51.986;4.666;2022-10-23T13:47:26;100477.38;;;27.33;42.68
38616;BME280;24370;51.986;4.666;2022-10-23T13:49:51;100472.00;;;27.95;41.23
38616;BME280;24370;51.986;4.666;2022-10-23T13:52:19;100477.81;;;27.59;42.27
38616;BME280;24370;51.986;4.666;2022-10-23T13:54:47;100470.50;;;27.71;42.06
38616;BME280;24370;51.986;4.666;2022-10-23T13:57:14;100473.78;;;28.15;41.05
38616;BME280;24370;51.986;4.666;2022-10-23T13:59:41;100467.38;;;27.66;42.86
38616;BME280;24370;51.986;4.666;2022-10-23T14:02:19;100460.38;;;27.84;41.79
38616;BME280;24370;51.986;4.666;2022-10-23T14:04:45;100473.94;;;27.83;41.62
38616;BME280;24370;51.986;4.666;2022-10-23T14:07:11;100468.97;;;28.29;40.80
38616;BME280;24370;51.986;4.666;2022-10-23T14:09:36;100468.47;;;28.64;40.60
38616;BME280;24370;51.986;4.666;2022-10-23T14:12:02;100469.25;;;28.35;41.42
38616;BME280;24370;51.986;4.666;2022-10-23T14:14:27;100462.50;;;28.60;41.14
38616;BME280;24370;51.986;4.666;2022-10-23T14:16:53;100467.44;;;28.36;41.19
38616;BME280;24370;51.986;4.666;2022-10-23T14:19:19;100465.84;;;29.21;39.74
38616;BME280;24370;51.986;4.666;2022-10-23T14:21:44;100460.22;;;29.05;39.61
38616;BME280;24370;51.986;4.666;2022-10-23T14:24:09;100462.34;;;27.82;41.71
38616;BME280;24370;51.986;4.666;2022-10-23T14:26:35;100447.06;;;27.73;42.08
38616;BME280;24370;51.986;4.666;2022-10-23T14:29:00;100459.88;;;28.00;42.10
38616;BME280;24370;51.986;4.666;2022-10-23T14:31:25;100466.41;;;28.17;40.86
38616;BME280;24370;51.986;4.666;2022-10-23T14:33:53;100449.47;;;28.75;40.22
38616;BME280;24370;51.986;4.666;2022-10-23T14:36:19;100451.63;;;27.82;42.11
38616;BME280;24370;51.986;4.666;2022-10-23T14:38:45;100462.31;;;28.33;41.53
38616;BME280;24370;51.986;4.666;2022-10-23T14:41:12;100458.69;;;28.83;40.64
38616;BME280;24370;51.986;4.666;2022-10-23T14:43:38;100453.97;;;28.16;41.83
38616;BME280;24370;51.986;4.666;2022-10-23T14:46:14;100439.53;;;28.07;41.52
38616;BME280;24370;51.986;4.666;2022-10-23T14:48:40;100435.47;;;28.91;40.30
38616;BME280;24370;51.986;4.666;2022-10-23T14:51:12;100428.06;;;29.13;39.63
38616;BME280;24370;51.986;4.666;2022-10-23T14:53:40;100423.19;;;28.40;40.65